createdAt,value
2022-09-27T00:01:19.773Z,13.41
2022-09-27T00:03:46.059Z,13.32
2022-09-27T00:06:12.361Z,13.34
2022-09-27T00:08:38.617Z,13.33
2022-09-27T00:11:04.871Z,13.33
2022-09-27T00:13:31.123Z,13.36
2022-09-27T00:15:57.411Z,13.28
2022-09-27T00:18:23.724Z,13.35
2022-09-27T00:20:49.975Z,13.35
2022-09-27T00:23:16.232Z,13.32
2022-09-27T00:25:42.488Z,13.40
2022-09-27T00:28:08.794Z,13.30
2022-09-27T00:30:35.112Z,13.27
2022-09-27T00:33:01.426Z,13.32
2022-09-27T00:35:27.674Z,13.35
2022-09-27T00:37:53.959Z,13.33
2022-09-27T00:40:24.093Z,13.35
2022-09-27T00:42:50.586Z,13.32
2022-09-27T00:45:17.841Z,13.32
2022-09-27T00:47:44.165Z,13.37
2022-09-27T00:50:10.818Z,13.42
2022-09-27T00:52:37.221Z,13.32
2022-09-27T00:55:03.482Z,13.35
2022-09-27T00:57:29.757Z,13.27
2022-09-27T00:59:56.006Z,13.33
2022-09-27T01:02:22.411Z,13.31
2022-09-27T01:04:49.667Z,13.32
2022-09-27T01:07:15.924Z,13.34
2022-09-27T01:09:42.177Z,13.25
2022-09-27T01:12:08.530Z,13.23
2022-09-27T01:14:34.778Z,13.26
2022-09-27T01:17:01.657Z,13.26
2022-09-27T01:19:27.916Z,13.29
2022-09-27T01:21:54.200Z,13.29
2022-09-27T01:24:20.822Z,13.27
2022-09-27T01:26:47.079Z,13.31
2022-09-27T01:29:13.405Z,13.28
2022-09-27T01:31:39.703Z,13.27
2022-09-27T01:34:05.950Z,13.32
2022-09-27T01:36:32.347Z,13.26
2022-09-27T01:38:59.809Z,13.21
2022-09-27T01:41:26.056Z,13.23
2022-09-27T01:43:52.319Z,13.16
2022-09-27T01:46:18.587Z,13.11
2022-09-27T01:48:44.858Z,13.16
2022-09-27T01:51:11.102Z,13.19
2022-09-27T01:53:37.404Z,13.24
2022-09-27T01:56:03.654Z,13.27
2022-09-27T01:58:29.967Z,13.26
2022-09-27T02:00:56.455Z,13.23
2022-09-27T02:03:22.730Z,13.21
2022-09-27T02:05:48.989Z,13.23
2022-09-27T02:08:15.268Z,13.25
2022-09-27T02:10:41.530Z,13.18
2022-09-27T02:13:07.802Z,13.22
2022-09-27T02:15:34.091Z,13.22
2022-09-27T02:18:00.371Z,13.23
2022-09-27T02:20:26.616Z,13.24
2022-09-27T02:22:52.870Z,13.23
2022-09-27T02:25:19.122Z,13.18
2022-09-27T02:27:45.428Z,13.26
2022-09-27T02:30:12.300Z,13.28
2022-09-27T02:32:38.547Z,13.28
2022-09-27T02:35:04.802Z,13.31
2022-09-27T02:37:31.066Z,13.29
2022-09-27T02:39:57.322Z,13.16
2022-09-27T02:42:23.570Z,13.24
2022-09-27T02:44:49.826Z,13.20
2022-09-27T02:47:16.071Z,13.20
2022-09-27T02:49:42.460Z,13.19
2022-09-27T02:52:08.715Z,13.21
2022-09-27T02:54:34.966Z,13.08
2022-09-27T02:57:01.216Z,13.10
2022-09-27T02:59:27.474Z,13.14
2022-09-27T03:01:53.751Z,12.99
2022-09-27T03:04:22.614Z,13.10
2022-09-27T03:06:48.879Z,13.10
2022-09-27T03:09:15.206Z,13.07
2022-09-27T03:11:41.590Z,13.11
2022-09-27T03:14:09.260Z,13.10
2022-09-27T03:16:35.821Z,13.04
2022-09-27T03:19:02.116Z,13.12
2022-09-27T03:21:29.154Z,13.10
2022-09-27T03:23:55.406Z,13.03
2022-09-27T03:26:21.682Z,13.10
2022-09-27T03:28:47.939Z,13.11
2022-09-27T03:31:14.761Z,13.13
2022-09-27T03:33:41.094Z,13.12
2022-09-27T03:36:07.348Z,13.10
2022-09-27T03:38:33.601Z,13.01
2022-09-27T03:40:59.901Z,13.00
2022-09-27T03:43:26.158Z,13.04
2022-09-27T03:45:52.461Z,13.07
2022-09-27T03:48:18.773Z,12.96
2022-09-27T03:50:45.026Z,12.95
2022-09-27T03:53:11.283Z,12.94
2022-09-27T03:55:37.531Z,12.99
2022-09-27T03:58:03.791Z,12.97
2022-09-27T04:00:32.563Z,12.90
2022-09-27T04:02:59.540Z,12.84
2022-09-27T04:05:25.833Z,12.83
2022-09-27T04:07:52.083Z,12.81
2022-09-27T04:10:18.332Z,12.81
2022-09-27T04:12:44.594Z,12.84
2022-09-27T04:15:11.131Z,12.80
2022-09-27T04:17:37.405Z,12.79
2022-09-27T04:20:03.969Z,12.73
2022-09-27T04:22:30.218Z,12.76
2022-09-27T04:24:56.491Z,12.66
2022-09-27T04:27:22.737Z,12.60
2022-09-27T04:29:48.986Z,12.61
2022-09-27T04:32:15.229Z,12.58
2022-09-27T04:34:59.968Z,12.55
2022-09-27T04:37:26.222Z,12.57
2022-09-27T04:39:52.530Z,12.61
2022-09-27T04:42:18.898Z,12.62
2022-09-27T04:44:45.159Z,12.56
2022-09-27T04:47:11.415Z,12.46
2022-09-27T04:49:38.762Z,12.57
2022-09-27T04:52:05.988Z,12.58
2022-09-27T04:54:32.247Z,12.60
2022-09-27T04:56:58.495Z,12.53
2022-09-27T04:59:24.744Z,12.56
2022-09-27T05:01:51.061Z,12.56
2022-09-27T05:04:17.385Z,12.59
2022-09-27T05:06:43.656Z,12.61
2022-09-27T05:09:09.930Z,12.60
2022-09-27T05:11:37.962Z,12.58
2022-09-27T05:14:04.138Z,12.50
2022-09-27T05:16:33.338Z,12.61
2022-09-27T05:19:00.575Z,12.63
2022-09-27T05:21:26.831Z,12.61
2022-09-27T05:23:53.987Z,12.60
2022-09-27T05:26:20.759Z,12.59
2022-09-27T05:28:47.266Z,12.61
2022-09-27T05:31:14.358Z,12.65
2022-09-27T05:33:40.669Z,12.63
2022-09-27T05:36:06.979Z,12.61
2022-09-27T05:38:33.232Z,12.56
2022-09-27T05:40:59.594Z,12.59
2022-09-27T05:43:26.132Z,12.60
2022-09-27T05:45:53.002Z,12.71
2022-09-27T05:48:19.370Z,12.70
2022-09-27T05:50:45.712Z,12.68
2022-09-27T05:53:13.142Z,12.70
2022-09-27T05:55:39.430Z,12.73
2022-09-27T05:58:05.680Z,12.71
2022-09-27T06:00:31.959Z,12.74
2022-09-27T06:02:58.880Z,12.75
2022-09-27T06:05:25.258Z,12.69
2022-09-27T06:07:51.494Z,12.73
2022-09-27T06:10:17.847Z,12.55
2022-09-27T06:12:44.187Z,12.67
2022-09-27T06:15:10.444Z,12.79
2022-09-27T06:17:36.766Z,12.77
2022-09-27T06:20:03.019Z,12.78
2022-09-27T06:22:29.272Z,12.81
2022-09-27T06:24:55.577Z,12.89
2022-09-27T06:27:21.849Z,12.98
2022-09-27T06:29:48.148Z,13.03
2022-09-27T06:32:14.414Z,13.00
2022-09-27T06:34:41.671Z,13.02
2022-09-27T06:37:07.911Z,13.03
2022-09-27T06:39:34.911Z,12.95
2022-09-27T06:42:01.296Z,13.04
2022-09-27T06:44:27.548Z,13.13
2022-09-27T06:46:55.135Z,13.22
2022-09-27T06:49:22.603Z,13.19
2022-09-27T06:51:48.876Z,13.18
2022-09-27T06:54:15.148Z,13.25
2022-09-27T06:56:41.398Z,13.33
2022-09-27T06:59:26.390Z,13.41
2022-09-27T07:01:52.834Z,13.50
2022-09-27T07:04:19.399Z,13.73
2022-09-27T07:06:45.683Z,13.77
2022-09-27T07:09:11.957Z,13.70
2022-09-27T07:11:38.249Z,13.62
2022-09-27T07:14:08.122Z,13.55
2022-09-27T07:16:34.865Z,13.60
2022-09-27T07:19:01.185Z,13.65
2022-09-27T07:21:27.583Z,13.67
2022-09-27T07:23:53.850Z,13.76
2022-09-27T07:26:20.368Z,13.81
2022-09-27T07:28:46.625Z,13.86
2022-09-27T07:31:12.950Z,13.89
2022-09-27T07:33:43.166Z,14.06
2022-09-27T07:36:09.825Z,14.06
2022-09-27T07:38:36.254Z,14.19
2022-09-27T07:41:02.517Z,14.18
2022-09-27T07:43:28.790Z,14.09
2022-09-27T07:45:55.119Z,14.16
2022-09-27T07:48:21.423Z,14.22
2022-09-27T07:50:48.198Z,14.15
2022-09-27T07:53:15.002Z,14.19
2022-09-27T07:55:42.297Z,14.26
2022-09-27T07:58:08.862Z,14.23
2022-09-27T08:00:35.123Z,14.22
2022-09-27T08:03:01.399Z,14.30
2022-09-27T08:05:27.661Z,14.33
2022-09-27T08:07:53.992Z,14.37
2022-09-27T08:10:20.826Z,14.38
2022-09-27T08:12:47.095Z,14.49
2022-09-27T08:15:13.389Z,14.49
2022-09-27T08:17:39.640Z,14.49
2022-09-27T08:20:06.394Z,14.41
2022-09-27T08:22:32.668Z,14.52
2022-09-27T08:24:58.942Z,14.53
2022-09-27T08:27:25.271Z,14.73
2022-09-27T08:29:52.181Z,14.82
2022-09-27T08:32:22.989Z,14.85
2022-09-27T08:34:49.878Z,14.86
2022-09-27T08:37:16.186Z,14.78
2022-09-27T08:39:46.864Z,14.83
2022-09-27T08:42:14.157Z,14.81
2022-09-27T08:44:41.027Z,14.60
2022-09-27T08:47:07.294Z,14.87
2022-09-27T08:49:33.830Z,14.89
2022-09-27T08:52:00.408Z,14.77
2022-09-27T08:54:29.416Z,14.75
2022-09-27T08:56:56.892Z,15.10
2022-09-27T08:59:23.156Z,15.03
2022-09-27T09:01:49.424Z,14.81
2022-09-27T09:04:15.768Z,15.00
2022-09-27T09:06:42.089Z,15.27
2022-09-27T09:09:08.330Z,15.62
2022-09-27T09:11:53.486Z,15.72
2022-09-27T09:14:19.990Z,15.31
2022-09-27T09:16:47.269Z,15.24
2022-09-27T09:19:13.613Z,15.33
2022-09-27T09:21:39.901Z,14.89
2022-09-27T09:24:06.154Z,14.66
2022-09-27T09:26:32.414Z,14.85
2022-09-27T09:28:58.704Z,14.79
2022-09-27T09:31:25.226Z,15.08
2022-09-27T09:33:51.604Z,15.10
2022-09-27T09:36:17.863Z,14.94
2022-09-27T09:38:44.135Z,15.06
2022-09-27T09:41:10.384Z,15.20
2022-09-27T09:43:36.639Z,15.08
2022-09-27T09:46:03.009Z,15.08
2022-09-27T09:48:29.334Z,15.22
2022-09-27T09:50:55.591Z,15.23
2022-09-27T09:53:21.844Z,14.96
2022-09-27T09:55:48.896Z,15.14
2022-09-27T09:58:19.664Z,15.04
2022-09-27T10:00:46.294Z,15.00
2022-09-27T10:03:12.619Z,14.65
2022-09-27T10:05:38.895Z,14.99
2022-09-27T10:08:05.147Z,15.23
2022-09-27T10:10:31.400Z,15.00
2022-09-27T10:12:57.651Z,15.38
2022-09-27T10:15:23.932Z,15.32
2022-09-27T10:17:50.511Z,15.53
2022-09-27T10:20:16.783Z,15.38
2022-09-27T10:22:43.052Z,15.06
2022-09-27T10:25:09.378Z,15.37
2022-09-27T10:27:35.644Z,15.50
2022-09-27T10:30:01.935Z,15.90
2022-09-27T10:32:30.744Z,15.74
2022-09-27T10:34:57.001Z,15.89
2022-09-27T10:37:23.271Z,16.04
2022-09-27T10:39:50.783Z,15.59
2022-09-27T10:42:17.029Z,15.48
2022-09-27T10:44:43.282Z,15.24
2022-09-27T10:47:09.786Z,15.00
2022-09-27T10:49:36.052Z,14.48
2022-09-27T10:52:02.480Z,14.00
2022-09-27T10:54:28.738Z,14.11
2022-09-27T10:56:55.832Z,13.87
2022-09-27T10:59:22.384Z,13.77
2022-09-27T11:01:50.189Z,13.60
2022-09-27T11:04:16.707Z,13.91
2022-09-27T11:06:43.104Z,13.66
2022-09-27T11:09:09.369Z,13.94
2022-09-27T11:11:35.687Z,13.85
2022-09-27T11:14:04.357Z,13.86
2022-09-27T11:16:30.716Z,13.96
2022-09-27T11:18:57.367Z,14.29
2022-09-27T11:21:24.617Z,14.28
2022-09-27T11:23:50.806Z,14.31
2022-09-27T11:26:17.241Z,14.40
2022-09-27T11:28:43.496Z,13.97
2022-09-27T11:31:09.825Z,13.61
2022-09-27T11:33:36.205Z,13.77
2022-09-27T11:36:02.460Z,13.87
2022-09-27T11:38:52.335Z,13.63
2022-09-27T11:41:14.954Z,13.86
2022-09-27T11:43:41.205Z,13.73
2022-09-27T11:46:19.274Z,13.62
2022-09-27T11:48:49.322Z,13.33
2022-09-27T11:51:16.047Z,13.45
2022-09-27T11:53:42.421Z,13.30
2022-09-27T11:56:08.707Z,13.36
2022-09-27T11:58:34.984Z,13.82
2022-09-27T12:01:01.553Z,13.99
2022-09-27T12:03:27.849Z,14.32
2022-09-27T12:05:58.166Z,14.35
2022-09-27T12:08:25.080Z,15.00
2022-09-27T12:10:51.340Z,14.61
2022-09-27T12:13:17.625Z,14.25
2022-09-27T12:15:43.919Z,14.11
2022-09-27T12:18:10.370Z,13.65
2022-09-27T12:20:36.748Z,13.51
2022-09-27T12:23:03.009Z,13.92
2022-09-27T12:25:29.931Z,14.15
2022-09-27T12:27:56.183Z,14.42
2022-09-27T12:30:22.439Z,14.16
2022-09-27T12:32:48.768Z,14.14
2022-09-27T12:35:15.033Z,14.39
2022-09-27T12:37:41.291Z,14.27
2022-09-27T12:40:07.552Z,14.57
2022-09-27T12:42:33.801Z,14.19
2022-09-27T12:45:00.061Z,14.14
2022-09-27T12:47:26.320Z,14.55
2022-09-27T12:49:53.463Z,14.27
2022-09-27T12:52:25.186Z,14.57
2022-09-27T12:54:51.476Z,14.69
2022-09-27T12:57:18.397Z,14.41
2022-09-27T12:59:44.665Z,14.67
2022-09-27T13:02:11.045Z,14.11
2022-09-27T13:04:37.779Z,13.90
2022-09-27T13:07:04.960Z,13.86
2022-09-27T13:09:31.156Z,13.84
2022-09-27T13:11:57.816Z,14.08
2022-09-27T13:14:24.088Z,14.10
2022-09-27T13:16:51.375Z,14.26
2022-09-27T13:19:17.688Z,14.53
2022-09-27T13:21:43.940Z,14.40
2022-09-27T13:24:12.864Z,14.35
2022-09-27T13:26:39.144Z,14.88
2022-09-27T13:29:05.407Z,13.90
2022-09-27T13:31:31.676Z,14.37
2022-09-27T13:33:57.935Z,14.63
2022-09-27T13:36:25.122Z,14.70
2022-09-27T13:38:51.367Z,14.92
2022-09-27T13:41:18.193Z,15.04
2022-09-27T13:43:44.819Z,14.91
2022-09-27T13:46:13.474Z,14.68
2022-09-27T13:48:39.777Z,14.88
2022-09-27T13:51:06.219Z,14.85
2022-09-27T13:53:32.473Z,15.03
2022-09-27T13:55:58.733Z,14.81
2022-09-27T13:58:25.224Z,14.81
2022-09-27T14:00:51.598Z,14.43
2022-09-27T14:03:17.902Z,14.79
2022-09-27T14:05:44.160Z,14.91
2022-09-27T14:08:10.482Z,14.63
2022-09-27T14:10:36.782Z,14.57
2022-09-27T14:13:03.052Z,14.92
2022-09-27T14:15:29.339Z,14.64
2022-09-27T14:17:55.621Z,14.65
2022-09-27T14:20:23.720Z,14.71
2022-09-27T14:22:49.911Z,14.66
2022-09-27T14:25:16.176Z,14.31
2022-09-27T14:27:42.441Z,14.53
2022-09-27T14:30:08.696Z,14.09
2022-09-27T14:32:35.123Z,14.13
2022-09-27T14:35:01.440Z,14.23
2022-09-27T14:37:28.811Z,13.86
2022-09-27T14:39:55.099Z,13.94
2022-09-27T14:42:21.649Z,13.78
2022-09-27T14:44:47.931Z,14.14
2022-09-27T14:47:14.185Z,14.19
2022-09-27T14:49:40.444Z,14.24
2022-09-27T14:52:06.696Z,13.87
2022-09-27T14:54:33.008Z,13.98
2022-09-27T14:57:00.184Z,13.85
2022-09-27T14:59:30.704Z,13.97
2022-09-27T15:01:56.956Z,14.23
2022-09-27T15:04:24.431Z,14.30
2022-09-27T15:06:50.824Z,14.57
2022-09-27T15:09:17.278Z,14.38
2022-09-27T15:11:44.385Z,13.99
2022-09-27T15:14:11.391Z,13.81
2022-09-27T15:16:37.665Z,13.72
2022-09-27T15:19:04.033Z,13.67
2022-09-27T15:21:30.996Z,13.29
2022-09-27T15:23:58.749Z,13.76
2022-09-27T15:26:25.023Z,13.75
2022-09-27T15:28:52.203Z,13.90
2022-09-27T15:31:18.467Z,14.03
2022-09-27T15:33:45.833Z,13.80
2022-09-27T15:36:15.525Z,13.84
2022-09-27T15:38:47.255Z,13.74
2022-09-27T15:41:13.620Z,13.70
2022-09-27T15:43:40.073Z,13.29
2022-09-27T15:46:06.922Z,13.42
2022-09-27T15:48:33.404Z,13.34
2022-09-27T15:50:59.881Z,13.22
2022-09-27T15:53:26.252Z,13.71
2022-09-27T15:55:52.505Z,13.54
2022-09-27T15:58:18.786Z,13.61
2022-09-27T16:00:45.096Z,13.84
2022-09-27T16:03:11.394Z,14.04
2022-09-27T16:05:37.648Z,13.63
2022-09-27T16:08:04.270Z,13.84
2022-09-27T16:10:30.623Z,13.73
2022-09-27T16:12:56.882Z,13.48
2022-09-27T16:15:23.134Z,13.23
2022-09-27T16:17:49.429Z,13.55
2022-09-27T16:20:15.667Z,13.64
2022-09-27T16:22:41.952Z,13.66
2022-09-27T16:25:08.209Z,13.23
2022-09-27T16:27:35.015Z,13.30
2022-09-27T16:30:01.274Z,13.68
2022-09-27T16:32:27.690Z,13.54
2022-09-27T16:34:53.986Z,12.91
2022-09-27T16:37:20.378Z,12.70
2022-09-27T16:39:46.618Z,12.66
2022-09-27T16:42:13.614Z,12.90
2022-09-27T16:44:39.917Z,12.70
2022-09-27T16:47:08.952Z,12.48
2022-09-27T16:49:54.147Z,12.69
2022-09-27T16:52:20.439Z,12.51
2022-09-27T16:54:46.683Z,12.55
2022-09-27T16:57:12.943Z,12.39
2022-09-27T16:59:39.196Z,12.59
2022-09-27T17:02:05.849Z,12.78
2022-09-27T17:04:32.325Z,12.95
2022-09-27T17:06:58.594Z,12.65
2022-09-27T17:09:24.850Z,12.68
2022-09-27T17:11:51.109Z,12.51
2022-09-27T17:14:18.058Z,12.53
2022-09-27T17:16:44.549Z,12.62
2022-09-27T17:19:10.802Z,12.08
2022-09-27T17:21:38.158Z,12.31
2022-09-27T17:24:04.961Z,12.47
2022-09-27T17:26:31.897Z,12.56
2022-09-27T17:28:58.136Z,12.47
2022-09-27T17:31:25.310Z,12.18
2022-09-27T17:33:56.786Z,12.36
2022-09-27T17:36:24.183Z,12.09
2022-09-27T17:38:50.440Z,11.83
2022-09-27T17:41:16.700Z,12.01
2022-09-27T17:43:50.149Z,12.18
2022-09-27T17:46:16.636Z,12.18
2022-09-27T17:49:01.684Z,12.23
2022-09-27T17:51:29.268Z,12.20
2022-09-27T17:53:55.502Z,12.24
2022-09-27T17:56:22.860Z,12.20
2022-09-27T17:58:49.064Z,11.84
2022-09-27T18:01:15.344Z,12.07
2022-09-27T18:03:41.593Z,11.69
2022-09-27T18:06:07.848Z,11.82
2022-09-27T18:08:34.095Z,11.54
2022-09-27T18:11:01.358Z,11.93
2022-09-27T18:13:29.410Z,11.73
2022-09-27T18:15:57.577Z,11.71
2022-09-27T18:18:23.870Z,11.73
2022-09-27T18:20:50.128Z,11.86
2022-09-27T18:23:16.374Z,11.74
2022-09-27T18:25:43.035Z,11.67
2022-09-27T18:28:09.457Z,11.66
2022-09-27T18:30:35.700Z,11.44
2022-09-27T18:33:01.950Z,11.18
2022-09-27T18:35:28.954Z,11.13
2022-09-27T18:37:55.208Z,11.07
2022-09-27T18:40:44.528Z,10.65
2022-09-27T18:43:07.977Z,11.05
2022-09-27T18:45:34.240Z,11.08
2022-09-27T18:48:00.494Z,11.25
2022-09-27T18:50:26.743Z,11.32
2022-09-27T18:52:52.986Z,11.17
2022-09-27T18:55:22.149Z,11.15
2022-09-27T18:57:51.465Z,11.23
2022-09-27T19:00:17.934Z,11.35
2022-09-27T19:02:44.480Z,11.44
2022-09-27T19:05:10.730Z,11.58
2022-09-27T19:07:36.987Z,11.45
2022-09-27T19:10:04.958Z,11.55
2022-09-27T19:12:31.212Z,11.46
2022-09-27T19:14:57.472Z,11.17
2022-09-27T19:17:23.719Z,11.33
2022-09-27T19:19:50.738Z,11.43
2022-09-27T19:22:17.000Z,11.17
2022-09-27T19:24:43.253Z,11.41
2022-09-27T19:27:09.502Z,11.52
2022-09-27T19:29:36.788Z,11.15
2022-09-27T19:32:03.052Z,11.41
2022-09-27T19:34:29.320Z,11.53
2022-09-27T19:36:55.599Z,11.57
2022-09-27T19:39:21.852Z,11.60
2022-09-27T19:41:48.324Z,11.61
2022-09-27T19:44:14.746Z,11.49
2022-09-27T19:46:41.105Z,11.54
2022-09-27T19:49:07.563Z,11.37
2022-09-27T19:51:33.977Z,11.43
2022-09-27T19:54:00.231Z,11.38
2022-09-27T19:56:26.549Z,11.12
2022-09-27T19:58:53.159Z,11.22
2022-09-27T20:01:20.134Z,11.21
2022-09-27T20:03:46.450Z,11.25
2022-09-27T20:06:12.764Z,11.20
2022-09-27T20:08:39.006Z,11.21
2022-09-27T20:11:06.618Z,11.18
2022-09-27T20:13:33.050Z,11.27
2022-09-27T20:15:59.357Z,11.11
2022-09-27T20:18:25.619Z,11.18
2022-09-27T20:20:51.867Z,11.25
2022-09-27T20:23:19.983Z,11.22
2022-09-27T20:25:46.376Z,11.30
2022-09-27T20:28:12.631Z,11.25
2022-09-27T20:30:39.092Z,11.23
2022-09-27T20:33:23.923Z,11.28
2022-09-27T20:35:50.276Z,11.28
2022-09-27T20:38:16.514Z,11.25
2022-09-27T20:40:42.839Z,11.15
2022-09-27T20:43:09.109Z,11.05
2022-09-27T20:45:35.360Z,11.02
2022-09-27T20:48:01.618Z,11.03
2022-09-27T20:50:27.879Z,10.94
2022-09-27T20:52:54.132Z,10.92
2022-09-27T20:55:20.370Z,10.69
2022-09-27T20:57:57.354Z,10.61
2022-09-27T21:00:24.185Z,10.70
2022-09-27T21:02:50.430Z,10.67
2022-09-27T21:05:16.702Z,10.68
2022-09-27T21:07:42.965Z,10.69
2022-09-27T21:10:09.228Z,10.65
2022-09-27T21:12:35.524Z,10.55
2022-09-27T21:15:01.767Z,10.54
2022-09-27T21:17:28.011Z,10.39
2022-09-27T21:19:54.266Z,10.40
2022-09-27T21:22:20.805Z,10.40
2022-09-27T21:24:47.060Z,10.40
2022-09-27T21:27:13.308Z,10.25
2022-09-27T21:29:39.568Z,10.25
2022-09-27T21:32:05.825Z,10.29
2022-09-27T21:34:32.086Z,10.04
2022-09-27T21:36:58.532Z,10.15
2022-09-27T21:39:24.923Z,10.09
2022-09-27T21:41:51.176Z,10.14
2022-09-27T21:44:18.432Z,10.00
2022-09-27T21:46:44.722Z,10.01
2022-09-27T21:49:11.376Z,9.97
2022-09-27T21:51:37.666Z,10.06
2022-09-27T21:54:03.905Z,9.99
2022-09-27T21:56:30.360Z,9.92
2022-09-27T21:58:56.643Z,9.95
2022-09-27T22:01:22.968Z,10.08
2022-09-27T22:03:49.264Z,9.82
2022-09-27T22:06:15.514Z,9.96
2022-09-27T22:08:41.759Z,10.04
2022-09-27T22:11:08.022Z,9.71
2022-09-27T22:13:34.266Z,10.08
2022-09-27T22:16:00.577Z,9.74
2022-09-27T22:18:26.971Z,9.96
2022-09-27T22:20:53.224Z,10.14
2022-09-27T22:23:19.475Z,10.14
2022-09-27T22:25:45.966Z,10.27
2022-09-27T22:28:12.215Z,10.32
2022-09-27T22:30:38.496Z,10.38
2022-09-27T22:33:04.747Z,10.36
2022-09-27T22:35:31.174Z,10.23
2022-09-27T22:37:57.426Z,10.37
2022-09-27T22:40:23.790Z,10.47
2022-09-27T22:42:51.280Z,10.49
2022-09-27T22:45:18.318Z,10.47
2022-09-27T22:47:44.562Z,10.52
2022-09-27T22:50:10.840Z,10.57
2022-09-27T22:52:37.363Z,10.59
2022-09-27T22:55:03.621Z,10.61
2022-09-27T22:57:29.885Z,10.62
2022-09-27T22:59:56.158Z,10.64
2022-09-27T23:02:22.433Z,10.65
2022-09-27T23:04:48.926Z,10.68
2022-09-27T23:07:15.174Z,10.69
2022-09-27T23:09:41.436Z,10.59
2022-09-27T23:12:07.760Z,10.55
2022-09-27T23:14:34.014Z,10.57
2022-09-27T23:17:01.466Z,10.62
2022-09-27T23:19:27.726Z,10.61
2022-09-27T23:21:54.082Z,10.38
2022-09-27T23:24:20.641Z,10.57
2022-09-27T23:27:06.886Z,10.56
2022-09-27T23:29:33.150Z,10.52
2022-09-27T23:31:59.655Z,10.53
2022-09-27T23:34:25.924Z,10.60
2022-09-27T23:36:52.533Z,10.62
2022-09-27T23:39:18.804Z,10.60
2022-09-27T23:41:45.056Z,10.65
2022-09-27T23:44:13.192Z,10.70
2022-09-27T23:46:41.237Z,10.70
2022-09-27T23:49:07.548Z,10.65
2022-09-27T23:51:33.793Z,10.68
2022-09-27T23:54:00.298Z,10.70
2022-09-27T23:56:26.653Z,10.66
2022-09-27T23:58:52.909Z,10.69
